sensor_id;sensor_type;location;lat;lon;timestamp;P1;durP1;ratioP1;P2;durP2;ratioP2
56161;SDS011;42045;52.986;6.014;2022-09-21T00:00:48;5.03;;;2.47;;
56161;SDS011;42045;52.986;6.014;2022-09-21T00:03:14;3.85;;;2.60;;
56161;SDS011;42045;52.986;6.014;2022-09-21T00:05:40;5.57;;;2.65;;
56161;SDS011;42045;52.986;6.014;2022-09-21T00:08:07;8.43;;;2.70;;
56161;SDS011;42045;52.986;6.014;2022-09-21T00:10:34;6.05;;;2.60;;
56161;SDS011;42045;52.986;6.014;2022-09-21T00:13:00;6.07;;;2.67;;
56161;SDS011;42045;52.986;6.014;2022-09-21T00:15:27;6.93;;;3.03;;
56161;SDS011;42045;52.986;6.014;2022-09-21T00:17:54;4.65;;;2.20;;
56161;SDS011;42045;52.986;6.014;2022-09-21T00:20:21;6.22;;;2.80;;
56161;SDS011;42045;52.986;6.014;2022-09-21T00:22:48;7.72;;;2.92;;
56161;SDS011;42045;52.986;6.014;2022-09-21T00:25:14;5.13;;;2.55;;
56161;SDS011;42045;52.986;6.014;2022-09-21T00:27:40;4.13;;;2.58;;
56161;SDS011;42045;52.986;6.014;2022-09-21T00:30:07;3.60;;;2.45;;
56161;SDS011;42045;52.986;6.014;2022-09-21T00:32:34;8.23;;;2.78;;
56161;SDS011;42045;52.986;6.014;2022-09-21T00:35:01;4.88;;;2.30;;
56161;SDS011;42045;52.986;6.014;2022-09-21T00:37:28;5.07;;;2.38;;
56161;SDS011;42045;52.986;6.014;2022-09-21T00:39:55;5.80;;;2.40;;
56161;SDS011;42045;52.986;6.014;2022-09-21T00:42:29;4.88;;;2.33;;
56161;SDS011;42045;52.986;6.014;2022-09-21T00:44:59;3.80;;;2.20;;
56161;SDS011;42045;52.986;6.014;2022-09-21T00:47:41;3.88;;;2.30;;
56161;SDS011;42045;52.986;6.014;2022-09-21T00:50:09;3.85;;;2.40;;
56161;SDS011;42045;52.986;6.014;2022-09-21T00:52:42;4.90;;;2.70;;
56161;SDS011;42045;52.986;6.014;2022-09-21T00:57:40;3.05;;;2.25;;
56161;SDS011;42045;52.986;6.014;2022-09-21T01:00:08;3.88;;;2.45;;
56161;SDS011;42045;52.986;6.014;2022-09-21T01:02:35;5.30;;;3.40;;
56161;SDS011;42045;52.986;6.014;2022-09-21T01:05:05;4.43;;;2.40;;
56161;SDS011;42045;52.986;6.014;2022-09-21T01:07:33;5.05;;;3.08;;
56161;SDS011;42045;52.986;6.014;2022-09-21T01:10:04;3.53;;;2.30;;
56161;SDS011;42045;52.986;6.014;2022-09-21T01:34:33;8.35;;;3.88;;
56161;SDS011;42045;52.986;6.014;2022-09-21T01:37:06;6.70;;;3.50;;
56161;SDS011;42045;52.986;6.014;2022-09-21T01:39:37;4.57;;;2.45;;
56161;SDS011;42045;52.986;6.014;2022-09-21T01:42:06;4.05;;;2.28;;
56161;SDS011;42045;52.986;6.014;2022-09-21T01:44:33;5.78;;;2.40;;
56161;SDS011;42045;52.986;6.014;2022-09-21T01:47:02;3.65;;;2.20;;
56161;SDS011;42045;52.986;6.014;2022-09-21T01:49:33;4.38;;;2.75;;
56161;SDS011;42045;52.986;6.014;2022-09-21T01:55:26;4.30;;;2.15;;
56161;SDS011;42045;52.986;6.014;2022-09-21T01:58:44;7.38;;;2.50;;
56161;SDS011;42045;52.986;6.014;2022-09-21T02:00:51;3.78;;;2.40;;
56161;SDS011;42045;52.986;6.014;2022-09-21T02:03:33;3.58;;;2.42;;
56161;SDS011;42045;52.986;6.014;2022-09-21T02:06:02;4.35;;;2.20;;
56161;SDS011;42045;52.986;6.014;2022-09-21T02:08:30;3.88;;;2.20;;
56161;SDS011;42045;52.986;6.014;2022-09-21T02:10:56;4.15;;;1.98;;
56161;SDS011;42045;52.986;6.014;2022-09-21T02:13:25;3.58;;;2.20;;
56161;SDS011;42045;52.986;6.014;2022-09-21T02:24:34;2.28;;;1.80;;
56161;SDS011;42045;52.986;6.014;2022-09-21T02:29:47;4.22;;;2.03;;
56161;SDS011;42045;52.986;6.014;2022-09-21T02:35:12;4.38;;;2.00;;
56161;SDS011;42045;52.986;6.014;2022-09-21T02:37:54;3.72;;;2.00;;
56161;SDS011;42045;52.986;6.014;2022-09-21T02:40:39;3.67;;;1.80;;
56161;SDS011;42045;52.986;6.014;2022-09-21T02:43:20;3.10;;;1.70;;
56161;SDS011;42045;52.986;6.014;2022-09-21T02:46:02;4.57;;;1.60;;
56161;SDS011;42045;52.986;6.014;2022-09-21T02:48:52;2.53;;;1.80;;
56161;SDS011;42045;52.986;6.014;2022-09-21T02:51:28;5.45;;;2.20;;
56161;SDS011;42045;52.986;6.014;2022-09-21T02:53:58;5.55;;;2.33;;
56161;SDS011;42045;52.986;6.014;2022-09-21T02:56:27;2.80;;;2.13;;
56161;SDS011;42045;52.986;6.014;2022-09-21T02:58:55;2.30;;;1.85;;
56161;SDS011;42045;52.986;6.014;2022-09-21T03:01:24;4.32;;;2.08;;
56161;SDS011;42045;52.986;6.014;2022-09-21T03:03:53;6.55;;;2.03;;
56161;SDS011;42045;52.986;6.014;2022-09-21T03:06:19;2.15;;;1.70;;
56161;SDS011;42045;52.986;6.014;2022-09-21T03:08:45;2.28;;;1.67;;
56161;SDS011;42045;52.986;6.014;2022-09-21T03:11:14;2.40;;;1.80;;
56161;SDS011;42045;52.986;6.014;2022-09-21T03:13:41;5.60;;;2.10;;
56161;SDS011;42045;52.986;6.014;2022-09-21T03:16:07;3.97;;;2.58;;
56161;SDS011;42045;52.986;6.014;2022-09-21T03:18:32;3.20;;;1.70;;
56161;SDS011;42045;52.986;6.014;2022-09-21T03:20:59;3.55;;;1.60;;
56161;SDS011;42045;52.986;6.014;2022-09-21T03:23:25;4.55;;;1.20;;
56161;SDS011;42045;52.986;6.014;2022-09-21T03:25:51;1.80;;;1.40;;
56161;SDS011;42045;52.986;6.014;2022-09-21T03:28:17;3.17;;;1.60;;
56161;SDS011;42045;52.986;6.014;2022-09-21T03:30:44;2.42;;;1.52;;
56161;SDS011;42045;52.986;6.014;2022-09-21T03:33:09;4.72;;;2.13;;
56161;SDS011;42045;52.986;6.014;2022-09-21T03:35:37;2.50;;;1.60;;
56161;SDS011;42045;52.986;6.014;2022-09-21T03:38:03;3.78;;;1.63;;
56161;SDS011;42045;52.986;6.014;2022-09-21T03:40:29;2.78;;;1.40;;
56161;SDS011;42045;52.986;6.014;2022-09-21T03:42:56;3.33;;;1.70;;
56161;SDS011;42045;52.986;6.014;2022-09-21T03:45:22;3.85;;;1.48;;
56161;SDS011;42045;52.986;6.014;2022-09-21T03:47:54;2.78;;;1.58;;
56161;SDS011;42045;52.986;6.014;2022-09-21T03:50:27;2.55;;;2.00;;
56161;SDS011;42045;52.986;6.014;2022-09-21T03:52:54;3.17;;;1.83;;
56161;SDS011;42045;52.986;6.014;2022-09-21T03:55:20;2.90;;;1.73;;
56161;SDS011;42045;52.986;6.014;2022-09-21T03:57:45;2.03;;;1.30;;
56161;SDS011;42045;52.986;6.014;2022-09-21T04:00:14;3.90;;;1.48;;
56161;SDS011;42045;52.986;6.014;2022-09-21T04:02:40;2.72;;;1.90;;
56161;SDS011;42045;52.986;6.014;2022-09-21T04:05:07;2.97;;;1.90;;
56161;SDS011;42045;52.986;6.014;2022-09-21T04:07:34;8.02;;;2.00;;
56161;SDS011;42045;52.986;6.014;2022-09-21T04:10:02;6.10;;;2.20;;
56161;SDS011;42045;52.986;6.014;2022-09-21T04:12:30;3.45;;;1.98;;
56161;SDS011;42045;52.986;6.014;2022-09-21T04:14:56;4.70;;;1.30;;
56161;SDS011;42045;52.986;6.014;2022-09-21T04:17:22;3.22;;;1.30;;
56161;SDS011;42045;52.986;6.014;2022-09-21T04:19:47;3.30;;;1.48;;
56161;SDS011;42045;52.986;6.014;2022-09-21T04:22:13;4.38;;;1.70;;
56161;SDS011;42045;52.986;6.014;2022-09-21T04:24:39;1.85;;;1.40;;
56161;SDS011;42045;52.986;6.014;2022-09-21T04:27:08;3.40;;;1.70;;
56161;SDS011;42045;52.986;6.014;2022-09-21T04:29:34;5.57;;;2.08;;
56161;SDS011;42045;52.986;6.014;2022-09-21T04:32:00;4.03;;;1.70;;
56161;SDS011;42045;52.986;6.014;2022-09-21T04:34:27;3.70;;;1.90;;
56161;SDS011;42045;52.986;6.014;2022-09-21T04:36:53;4.95;;;2.40;;
56161;SDS011;42045;52.986;6.014;2022-09-21T04:39:18;3.63;;;2.25;;
56161;SDS011;42045;52.986;6.014;2022-09-21T04:41:49;4.45;;;2.17;;
56161;SDS011;42045;52.986;6.014;2022-09-21T04:44:15;4.30;;;2.15;;
56161;SDS011;42045;52.986;6.014;2022-09-21T04:46:43;3.75;;;1.70;;
56161;SDS011;42045;52.986;6.014;2022-09-21T04:49:09;4.85;;;2.03;;
56161;SDS011;42045;52.986;6.014;2022-09-21T04:51:35;4.53;;;1.77;;
56161;SDS011;42045;52.986;6.014;2022-09-21T04:54:01;3.45;;;1.80;;
56161;SDS011;42045;52.986;6.014;2022-09-21T04:56:27;4.32;;;2.05;;
56161;SDS011;42045;52.986;6.014;2022-09-21T04:58:53;5.03;;;1.35;;
56161;SDS011;42045;52.986;6.014;2022-09-21T05:01:19;1.52;;;1.00;;
56161;SDS011;42045;52.986;6.014;2022-09-21T05:03:45;2.13;;;1.10;;
56161;SDS011;42045;52.986;6.014;2022-09-21T05:06:10;2.13;;;1.23;;
56161;SDS011;42045;52.986;6.014;2022-09-21T05:08:37;2.03;;;1.40;;
56161;SDS011;42045;52.986;6.014;2022-09-21T05:11:23;2.25;;;1.55;;
56161;SDS011;42045;52.986;6.014;2022-09-21T05:13:49;3.55;;;1.77;;
56161;SDS011;42045;52.986;6.014;2022-09-21T05:16:15;4.28;;;2.03;;
56161;SDS011;42045;52.986;6.014;2022-09-21T05:18:42;3.75;;;2.20;;
56161;SDS011;42045;52.986;6.014;2022-09-21T05:21:08;7.82;;;3.15;;
56161;SDS011;42045;52.986;6.014;2022-09-21T05:23:36;6.75;;;3.42;;
56161;SDS011;42045;52.986;6.014;2022-09-21T05:26:02;5.28;;;2.75;;
56161;SDS011;42045;52.986;6.014;2022-09-21T05:28:28;3.53;;;3.05;;
56161;SDS011;42045;52.986;6.014;2022-09-21T05:33:36;5.15;;;3.30;;
56161;SDS011;42045;52.986;6.014;2022-09-21T05:38:54;5.50;;;3.15;;
56161;SDS011;42045;52.986;6.014;2022-09-21T05:41:21;8.00;;;5.15;;
56161;SDS011;42045;52.986;6.014;2022-09-21T05:43:47;8.98;;;6.25;;
56161;SDS011;42045;52.986;6.014;2022-09-21T05:59:38;9.40;;;6.00;;
56161;SDS011;42045;52.986;6.014;2022-09-21T06:05:01;8.55;;;6.07;;
56161;SDS011;42045;52.986;6.014;2022-09-21T06:07:34;7.37;;;5.37;;
56161;SDS011;42045;52.986;6.014;2022-09-21T06:09:59;7.63;;;4.45;;
56161;SDS011;42045;52.986;6.014;2022-09-21T06:12:25;6.97;;;4.30;;
56161;SDS011;42045;52.986;6.014;2022-09-21T06:14:51;5.90;;;4.10;;
56161;SDS011;42045;52.986;6.014;2022-09-21T06:17:16;6.07;;;4.00;;
56161;SDS011;42045;52.986;6.014;2022-09-21T06:19:42;7.30;;;4.05;;
56161;SDS011;42045;52.986;6.014;2022-09-21T06:22:08;6.55;;;3.97;;
56161;SDS011;42045;52.986;6.014;2022-09-21T06:24:34;4.97;;;3.90;;
56161;SDS011;42045;52.986;6.014;2022-09-21T06:26:59;5.38;;;3.45;;
56161;SDS011;42045;52.986;6.014;2022-09-21T06:29:26;4.10;;;3.38;;
56161;SDS011;42045;52.986;6.014;2022-09-21T06:31:52;4.97;;;3.50;;
56161;SDS011;42045;52.986;6.014;2022-09-21T06:34:18;5.88;;;3.00;;
56161;SDS011;42045;52.986;6.014;2022-09-21T06:36:43;4.65;;;3.03;;
56161;SDS011;42045;52.986;6.014;2022-09-21T06:39:12;5.03;;;2.78;;
56161;SDS011;42045;52.986;6.014;2022-09-21T06:41:38;4.93;;;2.67;;
56161;SDS011;42045;52.986;6.014;2022-09-21T06:44:04;5.03;;;3.03;;
56161;SDS011;42045;52.986;6.014;2022-09-21T06:46:29;5.43;;;3.28;;
56161;SDS011;42045;52.986;6.014;2022-09-21T06:48:55;5.38;;;3.10;;
56161;SDS011;42045;52.986;6.014;2022-09-21T06:51:21;4.35;;;3.10;;
56161;SDS011;42045;52.986;6.014;2022-09-21T06:53:48;4.22;;;3.53;;
56161;SDS011;42045;52.986;6.014;2022-09-21T06:56:18;3.17;;;2.80;;
56161;SDS011;42045;52.986;6.014;2022-09-21T06:58:44;4.82;;;2.70;;
56161;SDS011;42045;52.986;6.014;2022-09-21T07:01:11;4.15;;;2.97;;
56161;SDS011;42045;52.986;6.014;2022-09-21T07:03:39;3.88;;;2.10;;
56161;SDS011;42045;52.986;6.014;2022-09-21T07:06:07;4.60;;;2.45;;
56161;SDS011;42045;52.986;6.014;2022-09-21T07:08:36;5.28;;;2.40;;
56161;SDS011;42045;52.986;6.014;2022-09-21T07:11:02;4.35;;;2.15;;
56161;SDS011;42045;52.986;6.014;2022-09-21T07:13:36;3.88;;;2.10;;
56161;SDS011;42045;52.986;6.014;2022-09-21T07:16:06;2.92;;;2.38;;
56161;SDS011;42045;52.986;6.014;2022-09-21T07:18:33;4.82;;;2.00;;
56161;SDS011;42045;52.986;6.014;2022-09-21T07:21:05;5.65;;;2.33;;
56161;SDS011;42045;52.986;6.014;2022-09-21T07:23:33;4.18;;;2.42;;
56161;SDS011;42045;52.986;6.014;2022-09-21T07:26:03;3.63;;;2.13;;
56161;SDS011;42045;52.986;6.014;2022-09-21T07:30:58;4.60;;;2.20;;
56161;SDS011;42045;52.986;6.014;2022-09-21T07:33:29;7.47;;;2.47;;
56161;SDS011;42045;52.986;6.014;2022-09-21T07:35:57;4.85;;;2.50;;
56161;SDS011;42045;52.986;6.014;2022-09-21T07:38:24;6.10;;;2.70;;
56161;SDS011;42045;52.986;6.014;2022-09-21T07:40:56;6.00;;;2.85;;
56161;SDS011;42045;52.986;6.014;2022-09-21T07:43:27;5.47;;;2.38;;
56161;SDS011;42045;52.986;6.014;2022-09-21T07:45:53;6.75;;;2.67;;
56161;SDS011;42045;52.986;6.014;2022-09-21T07:48:22;7.30;;;2.78;;
56161;SDS011;42045;52.986;6.014;2022-09-21T07:50:48;6.32;;;2.47;;
56161;SDS011;42045;52.986;6.014;2022-09-21T07:53:14;4.35;;;2.17;;
56161;SDS011;42045;52.986;6.014;2022-09-21T07:55:43;4.65;;;2.35;;
56161;SDS011;42045;52.986;6.014;2022-09-21T07:58:09;5.20;;;2.20;;
56161;SDS011;42045;52.986;6.014;2022-09-21T08:00:53;8.38;;;2.50;;
56161;SDS011;42045;52.986;6.014;2022-09-21T08:03:19;6.47;;;2.67;;
56161;SDS011;42045;52.986;6.014;2022-09-21T08:05:45;5.75;;;2.30;;
56161;SDS011;42045;52.986;6.014;2022-09-21T08:08:11;4.65;;;1.98;;
56161;SDS011;42045;52.986;6.014;2022-09-21T08:10:37;4.50;;;2.25;;
56161;SDS011;42045;52.986;6.014;2022-09-21T08:13:08;12.95;;;3.33;;
56161;SDS011;42045;52.986;6.014;2022-09-21T08:15:34;6.00;;;2.50;;
56161;SDS011;42045;52.986;6.014;2022-09-21T08:18:01;5.95;;;2.58;;
56161;SDS011;42045;52.986;6.014;2022-09-21T08:20:31;5.72;;;2.40;;
56161;SDS011;42045;52.986;6.014;2022-09-21T08:22:58;5.35;;;2.65;;
56161;SDS011;42045;52.986;6.014;2022-09-21T08:25:24;8.32;;;2.25;;
56161;SDS011;42045;52.986;6.014;2022-09-21T08:27:55;7.30;;;2.00;;
56161;SDS011;42045;52.986;6.014;2022-09-21T08:30:22;7.60;;;2.17;;
56161;SDS011;42045;52.986;6.014;2022-09-21T08:32:53;7.20;;;2.30;;
56161;SDS011;42045;52.986;6.014;2022-09-21T08:35:20;4.85;;;2.05;;
56161;SDS011;42045;52.986;6.014;2022-09-21T08:37:46;7.05;;;2.17;;
56161;SDS011;42045;52.986;6.014;2022-09-21T08:40:12;8.45;;;2.10;;
56161;SDS011;42045;52.986;6.014;2022-09-21T08:45:16;5.57;;;1.55;;
56161;SDS011;42045;52.986;6.014;2022-09-21T08:47:55;6.93;;;1.80;;
56161;SDS011;42045;52.986;6.014;2022-09-21T08:50:36;8.70;;;2.17;;
56161;SDS011;42045;52.986;6.014;2022-09-21T08:55:59;6.22;;;1.20;;
56161;SDS011;42045;52.986;6.014;2022-09-21T08:58:27;5.10;;;1.20;;
56161;SDS011;42045;52.986;6.014;2022-09-21T09:17:35;3.65;;;1.20;;
56161;SDS011;42045;52.986;6.014;2022-09-21T09:25:45;7.13;;;1.50;;
56161;SDS011;42045;52.986;6.014;2022-09-21T09:30:55;9.40;;;1.67;;
56161;SDS011;42045;52.986;6.014;2022-09-21T09:33:58;8.50;;;1.30;;
56161;SDS011;42045;52.986;6.014;2022-09-21T09:36:35;8.10;;;1.70;;
56161;SDS011;42045;52.986;6.014;2022-09-21T09:39:13;6.20;;;1.40;;
56161;SDS011;42045;52.986;6.014;2022-09-21T09:47:19;5.43;;;1.20;;
56161;SDS011;42045;52.986;6.014;2022-09-21T09:52:34;4.40;;;1.70;;
56161;SDS011;42045;52.986;6.014;2022-09-21T09:57:59;6.28;;;1.67;;
56161;SDS011;42045;52.986;6.014;2022-09-21T10:00:28;5.68;;;1.65;;
56161;SDS011;42045;52.986;6.014;2022-09-21T10:02:59;5.05;;;1.20;;
56161;SDS011;42045;52.986;6.014;2022-09-21T10:05:32;7.97;;;1.63;;
56161;SDS011;42045;52.986;6.014;2022-09-21T10:08:05;4.90;;;1.63;;
56161;SDS011;42045;52.986;6.014;2022-09-21T10:10:50;6.18;;;1.48;;
56161;SDS011;42045;52.986;6.014;2022-09-21T10:13:35;8.27;;;1.40;;
56161;SDS011;42045;52.986;6.014;2022-09-21T10:18:53;4.43;;;1.45;;
56161;SDS011;42045;52.986;6.014;2022-09-21T10:21:27;5.35;;;1.65;;
56161;SDS011;42045;52.986;6.014;2022-09-21T10:24:19;5.80;;;1.33;;
56161;SDS011;42045;52.986;6.014;2022-09-21T10:26:49;6.57;;;1.40;;
56161;SDS011;42045;52.986;6.014;2022-09-21T10:31:57;8.00;;;2.05;;
56161;SDS011;42045;52.986;6.014;2022-09-21T10:34:31;4.57;;;1.40;;
56161;SDS011;42045;52.986;6.014;2022-09-21T10:40:00;10.20;;;1.65;;
56161;SDS011;42045;52.986;6.014;2022-09-21T10:42:28;5.28;;;1.45;;
56161;SDS011;42045;52.986;6.014;2022-09-21T10:45:12;4.93;;;1.30;;
56161;SDS011;42045;52.986;6.014;2022-09-21T10:50:47;5.25;;;1.50;;
56161;SDS011;42045;52.986;6.014;2022-09-21T10:56:13;5.10;;;1.50;;
56161;SDS011;42045;52.986;6.014;2022-09-21T10:59:08;4.25;;;1.13;;
56161;SDS011;42045;52.986;6.014;2022-09-21T11:01:49;3.72;;;1.00;;
56161;SDS011;42045;52.986;6.014;2022-09-21T11:04:28;5.75;;;1.33;;
56161;SDS011;42045;52.986;6.014;2022-09-21T11:10:03;3.63;;;1.40;;
56161;SDS011;42045;52.986;6.014;2022-09-21T11:12:43;4.78;;;1.00;;
56161;SDS011;42045;52.986;6.014;2022-09-21T11:15:24;5.88;;;1.25;;
56161;SDS011;42045;52.986;6.014;2022-09-21T11:20:55;3.83;;;1.63;;
56161;SDS011;42045;52.986;6.014;2022-09-21T11:26:43;5.30;;;1.10;;
56161;SDS011;42045;52.986;6.014;2022-09-21T11:29:22;7.18;;;1.48;;
56161;SDS011;42045;52.986;6.014;2022-09-21T11:34:44;4.88;;;1.23;;
56161;SDS011;42045;52.986;6.014;2022-09-21T11:50:30;4.13;;;0.93;;
56161;SDS011;42045;52.986;6.014;2022-09-21T11:53:55;8.93;;;1.33;;
56161;SDS011;42045;52.986;6.014;2022-09-21T12:04:04;5.78;;;1.45;;
56161;SDS011;42045;52.986;6.014;2022-09-21T12:19:01;2.88;;;0.95;;
56161;SDS011;42045;52.986;6.014;2022-09-21T12:21:48;3.88;;;1.05;;
56161;SDS011;42045;52.986;6.014;2022-09-21T12:24:24;6.18;;;1.63;;
56161;SDS011;42045;52.986;6.014;2022-09-21T12:26:56;5.43;;;1.40;;
56161;SDS011;42045;52.986;6.014;2022-09-21T12:34:38;7.47;;;1.48;;
56161;SDS011;42045;52.986;6.014;2022-09-21T12:43:12;7.75;;;1.40;;
56161;SDS011;42045;52.986;6.014;2022-09-21T12:45:40;5.38;;;1.23;;
56161;SDS011;42045;52.986;6.014;2022-09-21T12:50:51;7.45;;;1.77;;
56161;SDS011;42045;52.986;6.014;2022-09-21T12:53:30;5.63;;;1.45;;
56161;SDS011;42045;52.986;6.014;2022-09-21T13:09:01;5.78;;;1.20;;
56161;SDS011;42045;52.986;6.014;2022-09-21T13:11:29;6.88;;;1.83;;
56161;SDS011;42045;52.986;6.014;2022-09-21T13:14:00;6.78;;;1.63;;
56161;SDS011;42045;52.986;6.014;2022-09-21T13:16:32;9.48;;;2.08;;
56161;SDS011;42045;52.986;6.014;2022-09-21T13:30:30;6.45;;;1.30;;
56161;SDS011;42045;52.986;6.014;2022-09-21T13:34:06;4.07;;;1.70;;
56161;SDS011;42045;52.986;6.014;2022-09-21T13:43:46;7.72;;;1.48;;
56161;SDS011;42045;52.986;6.014;2022-09-21T13:49:04;5.93;;;1.40;;
56161;SDS011;42045;52.986;6.014;2022-09-21T13:54:37;5.18;;;1.08;;
56161;SDS011;42045;52.986;6.014;2022-09-21T13:57:55;6.45;;;1.25;;
56161;SDS011;42045;52.986;6.014;2022-09-21T14:02:43;5.30;;;1.42;;
56161;SDS011;42045;52.986;6.014;2022-09-21T14:11:02;4.55;;;1.42;;
56161;SDS011;42045;52.986;6.014;2022-09-21T14:13:37;6.55;;;1.55;;
56161;SDS011;42045;52.986;6.014;2022-09-21T14:18:58;4.55;;;1.30;;
56161;SDS011;42045;52.986;6.014;2022-09-21T14:21:25;7.30;;;1.30;;
56161;SDS011;42045;52.986;6.014;2022-09-21T14:26:33;7.22;;;1.30;;
56161;SDS011;42045;52.986;6.014;2022-09-21T14:31:40;3.97;;;1.40;;
56161;SDS011;42045;52.986;6.014;2022-09-21T14:34:10;4.55;;;1.13;;
56161;SDS011;42045;52.986;6.014;2022-09-21T14:36:41;6.57;;;1.63;;
56161;SDS011;42045;52.986;6.014;2022-09-21T14:39:28;4.20;;;1.50;;
56161;SDS011;42045;52.986;6.014;2022-09-21T14:42:02;4.80;;;1.20;;
56161;SDS011;42045;52.986;6.014;2022-09-21T14:44:36;4.72;;;1.40;;
56161;SDS011;42045;52.986;6.014;2022-09-21T14:48:07;7.45;;;1.55;;
56161;SDS011;42045;52.986;6.014;2022-09-21T14:50:23;7.72;;;1.52;;
56161;SDS011;42045;52.986;6.014;2022-09-21T14:55:52;3.63;;;1.00;;
56161;SDS011;42045;52.986;6.014;2022-09-21T15:21:56;5.78;;;1.40;;
56161;SDS011;42045;52.986;6.014;2022-09-21T15:24:55;7.97;;;1.42;;
56161;SDS011;42045;52.986;6.014;2022-09-21T15:27:26;5.15;;;1.17;;
56161;SDS011;42045;52.986;6.014;2022-09-21T15:29:58;3.60;;;1.40;;
56161;SDS011;42045;52.986;6.014;2022-09-21T15:32:36;4.50;;;1.10;;
56161;SDS011;42045;52.986;6.014;2022-09-21T15:37:53;3.97;;;1.15;;
56161;SDS011;42045;52.986;6.014;2022-09-21T15:45:47;6.32;;;1.55;;
56161;SDS011;42045;52.986;6.014;2022-09-21T15:48:20;5.30;;;1.73;;
56161;SDS011;42045;52.986;6.014;2022-09-21T15:50:48;5.38;;;1.27;;
56161;SDS011;42045;52.986;6.014;2022-09-21T15:53:19;3.92;;;1.10;;
56161;SDS011;42045;52.986;6.014;2022-09-21T15:55:50;7.27;;;1.30;;
56161;SDS011;42045;52.986;6.014;2022-09-21T15:58:37;5.90;;;1.30;;
56161;SDS011;42045;52.986;6.014;2022-09-21T16:01:08;5.55;;;1.77;;
56161;SDS011;42045;52.986;6.014;2022-09-21T16:03:36;7.78;;;2.15;;
56161;SDS011;42045;52.986;6.014;2022-09-21T16:08:47;6.15;;;1.88;;
56161;SDS011;42045;52.986;6.014;2022-09-21T16:17:03;4.13;;;1.25;;
56161;SDS011;42045;52.986;6.014;2022-09-21T16:22:19;4.75;;;1.80;;
56161;SDS011;42045;52.986;6.014;2022-09-21T16:24:56;6.57;;;1.52;;
56161;SDS011;42045;52.986;6.014;2022-09-21T16:27:24;4.78;;;1.20;;
56161;SDS011;42045;52.986;6.014;2022-09-21T16:29:54;8.20;;;1.73;;
56161;SDS011;42045;52.986;6.014;2022-09-21T16:32:27;5.95;;;1.40;;
56161;SDS011;42045;52.986;6.014;2022-09-21T16:37:53;11.00;;;2.45;;
56161;SDS011;42045;52.986;6.014;2022-09-21T16:40:21;5.75;;;1.60;;
56161;SDS011;42045;52.986;6.014;2022-09-21T16:42:48;5.50;;;1.27;;
56161;SDS011;42045;52.986;6.014;2022-09-21T16:45:28;5.28;;;1.13;;
56161;SDS011;42045;52.986;6.014;2022-09-21T16:47:56;3.00;;;1.25;;
56161;SDS011;42045;52.986;6.014;2022-09-21T16:50:26;5.35;;;1.13;;
56161;SDS011;42045;52.986;6.014;2022-09-21T16:52:51;4.10;;;1.23;;
56161;SDS011;42045;52.986;6.014;2022-09-21T16:55:18;5.75;;;1.20;;
56161;SDS011;42045;52.986;6.014;2022-09-21T16:57:44;5.93;;;1.27;;
56161;SDS011;42045;52.986;6.014;2022-09-21T17:00:10;5.82;;;1.20;;
56161;SDS011;42045;52.986;6.014;2022-09-21T17:02:37;4.40;;;1.27;;
56161;SDS011;42045;52.986;6.014;2022-09-21T17:05:07;3.28;;;1.33;;
56161;SDS011;42045;52.986;6.014;2022-09-21T17:07:33;3.38;;;1.02;;
56161;SDS011;42045;52.986;6.014;2022-09-21T17:10:00;6.25;;;1.40;;
56161;SDS011;42045;52.986;6.014;2022-09-21T17:12:34;9.48;;;2.10;;
56161;SDS011;42045;52.986;6.014;2022-09-21T17:15:02;4.07;;;1.10;;
56161;SDS011;42045;52.986;6.014;2022-09-21T17:17:28;5.38;;;1.55;;
56161;SDS011;42045;52.986;6.014;2022-09-21T17:19:57;5.80;;;2.15;;
56161;SDS011;42045;52.986;6.014;2022-09-21T17:22:26;6.97;;;1.40;;
56161;SDS011;42045;52.986;6.014;2022-09-21T17:24:53;4.90;;;1.42;;
56161;SDS011;42045;52.986;6.014;2022-09-21T17:27:22;6.63;;;1.40;;
56161;SDS011;42045;52.986;6.014;2022-09-21T17:29:50;4.65;;;1.30;;
56161;SDS011;42045;52.986;6.014;2022-09-21T17:32:22;6.38;;;1.63;;
56161;SDS011;42045;52.986;6.014;2022-09-21T17:37:49;4.50;;;1.52;;
56161;SDS011;42045;52.986;6.014;2022-09-21T17:40:14;3.22;;;1.38;;
56161;SDS011;42045;52.986;6.014;2022-09-21T17:42:42;5.22;;;1.38;;
56161;SDS011;42045;52.986;6.014;2022-09-21T17:45:27;5.72;;;1.30;;
56161;SDS011;42045;52.986;6.014;2022-09-21T17:48:17;8.05;;;1.83;;
56161;SDS011;42045;52.986;6.014;2022-09-21T17:50:44;4.72;;;1.27;;
56161;SDS011;42045;52.986;6.014;2022-09-21T17:53:11;4.30;;;1.20;;
56161;SDS011;42045;52.986;6.014;2022-09-21T17:55:56;5.78;;;1.30;;
56161;SDS011;42045;52.986;6.014;2022-09-21T18:01:29;5.88;;;1.67;;
56161;SDS011;42045;52.986;6.014;2022-09-21T18:03:58;5.20;;;1.67;;
56161;SDS011;42045;52.986;6.014;2022-09-21T18:06:24;3.97;;;1.30;;
56161;SDS011;42045;52.986;6.014;2022-09-21T18:08:50;4.65;;;1.50;;
56161;SDS011;42045;52.986;6.014;2022-09-21T18:24:56;4.78;;;1.33;;
56161;SDS011;42045;52.986;6.014;2022-09-21T18:27:22;8.10;;;1.40;;
56161;SDS011;42045;52.986;6.014;2022-09-21T18:29:48;5.90;;;1.63;;
56161;SDS011;42045;52.986;6.014;2022-09-21T18:32:37;7.20;;;1.80;;
56161;SDS011;42045;52.986;6.014;2022-09-21T18:51:09;6.30;;;3.60;;
56161;SDS011;42045;52.986;6.014;2022-09-21T18:53:49;8.40;;;2.50;;
56161;SDS011;42045;52.986;6.014;2022-09-21T18:56:18;5.05;;;1.88;;
56161;SDS011;42045;52.986;6.014;2022-09-21T18:58:44;6.55;;;2.13;;
56161;SDS011;42045;52.986;6.014;2022-09-21T19:01:11;7.43;;;1.88;;
56161;SDS011;42045;52.986;6.014;2022-09-21T19:03:38;3.85;;;1.80;;
56161;SDS011;42045;52.986;6.014;2022-09-21T19:06:12;4.28;;;2.10;;
56161;SDS011;42045;52.986;6.014;2022-09-21T19:17:38;5.75;;;2.92;;
56161;SDS011;42045;52.986;6.014;2022-09-21T19:20:43;10.15;;;3.55;;
56161;SDS011;42045;52.986;6.014;2022-09-21T19:26:25;5.97;;;3.13;;
56161;SDS011;42045;52.986;6.014;2022-09-21T19:31:20;13.30;;;5.93;;
56161;SDS011;42045;52.986;6.014;2022-09-21T19:33:46;9.48;;;4.70;;
56161;SDS011;42045;52.986;6.014;2022-09-21T19:36:12;10.52;;;7.28;;
56161;SDS011;42045;52.986;6.014;2022-09-21T19:38:38;14.23;;;8.65;;
56161;SDS011;42045;52.986;6.014;2022-09-21T19:44:00;13.65;;;8.40;;
56161;SDS011;42045;52.986;6.014;2022-09-21T19:46:30;13.05;;;8.88;;
56161;SDS011;42045;52.986;6.014;2022-09-21T19:49:16;13.20;;;8.15;;
56161;SDS011;42045;52.986;6.014;2022-09-21T19:51:46;11.73;;;7.10;;
56161;SDS011;42045;52.986;6.014;2022-09-21T19:54:14;12.75;;;6.18;;
56161;SDS011;42045;52.986;6.014;2022-09-21T19:57:11;12.43;;;6.45;;
56161;SDS011;42045;52.986;6.014;2022-09-21T19:59:57;11.82;;;7.65;;
56161;SDS011;42045;52.986;6.014;2022-09-21T20:05:06;15.15;;;7.82;;
56161;SDS011;42045;52.986;6.014;2022-09-21T20:21:18;9.02;;;4.88;;
56161;SDS011;42045;52.986;6.014;2022-09-21T20:23:46;9.73;;;5.68;;
56161;SDS011;42045;52.986;6.014;2022-09-21T20:28:49;11.27;;;6.47;;
56161;SDS011;42045;52.986;6.014;2022-09-21T20:31:20;7.60;;;5.47;;
56161;SDS011;42045;52.986;6.014;2022-09-21T20:33:47;11.07;;;6.45;;
56161;SDS011;42045;52.986;6.014;2022-09-21T20:36:15;10.65;;;6.32;;
56161;SDS011;42045;52.986;6.014;2022-09-21T20:38:43;8.05;;;6.50;;
56161;SDS011;42045;52.986;6.014;2022-09-21T20:41:12;9.43;;;5.93;;
56161;SDS011;42045;52.986;6.014;2022-09-21T20:43:40;8.70;;;5.05;;
56161;SDS011;42045;52.986;6.014;2022-09-21T20:46:10;9.68;;;4.90;;
56161;SDS011;42045;52.986;6.014;2022-09-21T20:48:35;6.50;;;4.60;;
56161;SDS011;42045;52.986;6.014;2022-09-21T20:51:02;9.38;;;5.05;;
56161;SDS011;42045;52.986;6.014;2022-09-21T20:53:32;9.23;;;5.15;;
56161;SDS011;42045;52.986;6.014;2022-09-21T20:55:58;7.75;;;5.22;;
56161;SDS011;42045;52.986;6.014;2022-09-21T20:58:31;6.65;;;4.13;;
56161;SDS011;42045;52.986;6.014;2022-09-21T21:01:04;5.90;;;4.13;;
56161;SDS011;42045;52.986;6.014;2022-09-21T21:06:12;4.68;;;4.03;;
56161;SDS011;42045;52.986;6.014;2022-09-21T21:08:40;7.82;;;4.32;;